Assaria, Kansas
Current Conditions -  °F | °C
As of 7:10 AM on Sunday 23 Nov 2014 (Local Time) from KSLN Reporting Station
Light Rain Light Rain  
Wind Chill: 52°   Ceiling: 1000
Heat Index: 52°   Visibility: 3mi
Dew Point: 50°   Wind: 0mph
Humidity: 93%   Direction: NA
Pressure: 29.5"   Gusts: NA
Location:  38.68°N, 97.6°W
Report Text: KSLN 231310Z 00000KT 3SM -RA BR BKN010 OVC014 11/10 A2950 RMK AO2 P0001 T01110100
Loading
Personal Weather Stations






























Interactive Weather Map New forecast layout! Learn more

10-Day Weather Forecast

Advertisements
Track Severe Weather on mobile